sensor_id;sensor_type;location;lat;lon;timestamp;pressure;altitude;pressure_sealevel;temperature;humidity
35694;BME280;21812;55.536;37.664;2022-08-19T00:00:21;100329.00;;;23.68;46.29
35694;BME280;21812;55.536;37.664;2022-08-19T00:02:47;100335.84;;;23.71;46.86
35694;BME280;21812;55.536;37.664;2022-08-19T00:05:14;100347.56;;;23.71;47.00
35694;BME280;21812;55.536;37.664;2022-08-19T00:07:41;100342.69;;;23.73;47.10
35694;BME280;21812;55.536;37.664;2022-08-19T00:10:11;100322.63;;;23.52;47.06
35694;BME280;21812;55.536;37.664;2022-08-19T00:12:37;100341.78;;;23.62;47.51
35694;BME280;21812;55.536;37.664;2022-08-19T00:15:08;100332.22;;;23.60;47.32
35694;BME280;21812;55.536;37.664;2022-08-19T00:17:39;100350.69;;;23.53;47.41
35694;BME280;21812;55.536;37.664;2022-08-19T00:20:06;100350.75;;;23.58;48.10
35694;BME280;21812;55.536;37.664;2022-08-19T00:22:32;100345.84;;;23.60;48.21
35694;BME280;21812;55.536;37.664;2022-08-19T00:24:58;100355.41;;;23.62;48.32
35694;BME280;21812;55.536;37.664;2022-08-19T00:27:27;100357.00;;;23.58;48.39
35694;BME280;21812;55.536;37.664;2022-08-19T00:29:52;100364.31;;;23.53;48.63
35694;BME280;21812;55.536;37.664;2022-08-19T00:32:18;100352.91;;;23.56;48.99
35694;BME280;21812;55.536;37.664;2022-08-19T00:34:44;100356.38;;;23.46;48.62
35694;BME280;21812;55.536;37.664;2022-08-19T00:37:09;100358.84;;;23.48;49.18
35694;BME280;21812;55.536;37.664;2022-08-19T00:39:35;100360.75;;;23.47;49.15
35694;BME280;21812;55.536;37.664;2022-08-19T00:42:01;100364.31;;;23.48;48.95
35694;BME280;21812;55.536;37.664;2022-08-19T00:44:29;100363.69;;;23.40;49.18
35694;BME280;21812;55.536;37.664;2022-08-19T00:46:57;100362.88;;;23.40;49.66
35694;BME280;21812;55.536;37.664;2022-08-19T00:49:27;100365.94;;;23.49;49.63
35694;BME280;21812;55.536;37.664;2022-08-19T00:52:32;100377.19;;;23.57;49.33
35694;BME280;21812;55.536;37.664;2022-08-19T00:54:59;100377.88;;;23.42;49.43
35694;BME280;21812;55.536;37.664;2022-08-19T00:57:38;100367.72;;;23.33;49.40
35694;BME280;21812;55.536;37.664;2022-08-19T01:00:09;100387.13;;;23.41;49.12
35694;BME280;21812;55.536;37.664;2022-08-19T01:02:37;100395.34;;;23.47;49.62
35694;BME280;21812;55.536;37.664;2022-08-19T01:05:07;100368.03;;;23.36;49.52
35694;BME280;21812;55.536;37.664;2022-08-19T01:07:35;100397.59;;;23.55;49.17
35694;BME280;21812;55.536;37.664;2022-08-19T01:10:04;100395.34;;;23.47;49.23
35694;BME280;21812;55.536;37.664;2022-08-19T01:12:31;100387.13;;;23.41;49.42
35694;BME280;21812;55.536;37.664;2022-08-19T01:14:57;100393.41;;;23.42;49.30
35694;BME280;21812;55.536;37.664;2022-08-19T01:17:23;100393.41;;;23.42;49.26
35694;BME280;21812;55.536;37.664;2022-08-19T01:19:49;100396.09;;;23.37;49.40
35694;BME280;21812;55.536;37.664;2022-08-19T01:24:50;100395.59;;;23.40;49.53
35694;BME280;21812;55.536;37.664;2022-08-19T01:27:16;100394.22;;;23.42;49.34
35694;BME280;21812;55.536;37.664;2022-08-19T01:29:43;100395.84;;;23.43;49.45
35694;BME280;21812;55.536;37.664;2022-08-19T01:32:12;100361.41;;;23.27;49.03
35694;BME280;21812;55.536;37.664;2022-08-19T01:34:40;100375.09;;;23.37;49.28
35694;BME280;21812;55.536;37.664;2022-08-19T01:37:11;100382.72;;;23.35;48.93
35694;BME280;21812;55.536;37.664;2022-08-19T01:39:38;100354.16;;;23.11;48.63
35694;BME280;21812;55.536;37.664;2022-08-19T01:42:05;100364.63;;;23.24;49.14
35694;BME280;21812;55.536;37.664;2022-08-19T01:44:33;100368.47;;;23.28;49.26
35694;BME280;21812;55.536;37.664;2022-08-19T01:46:58;100369.03;;;23.30;49.34
35694;BME280;21812;55.536;37.664;2022-08-19T01:49:25;100375.03;;;23.27;49.31
35694;BME280;21812;55.536;37.664;2022-08-19T01:51:52;100367.91;;;23.26;49.02
35694;BME280;21812;55.536;37.664;2022-08-19T01:54:20;100350.31;;;23.07;48.95
35694;BME280;21812;55.536;37.664;2022-08-19T01:56:46;100384.19;;;23.16;49.02
35694;BME280;21812;55.536;37.664;2022-08-19T01:59:14;100380.78;;;23.03;49.31
35694;BME280;21812;55.536;37.664;2022-08-19T02:01:41;100385.81;;;23.17;49.30
35694;BME280;21812;55.536;37.664;2022-08-19T02:04:07;100389.81;;;23.09;48.86
35694;BME280;21812;55.536;37.664;2022-08-19T02:06:33;100391.00;;;23.18;49.25
35694;BME280;21812;55.536;37.664;2022-08-19T02:09:00;100393.97;;;23.17;49.08
35694;BME280;21812;55.536;37.664;2022-08-19T02:11:28;100366.09;;;23.05;49.20
35694;BME280;21812;55.536;37.664;2022-08-19T02:13:57;100395.56;;;23.13;49.06
35694;BME280;21812;55.536;37.664;2022-08-19T02:16:23;100397.72;;;23.11;48.72
35694;BME280;21812;55.536;37.664;2022-08-19T02:18:49;100395.00;;;23.11;49.09
35694;BME280;21812;55.536;37.664;2022-08-19T02:21:17;100359.00;;;22.81;49.04
35694;BME280;21812;55.536;37.664;2022-08-19T02:23:43;100407.19;;;23.03;49.48
35694;BME280;21812;55.536;37.664;2022-08-19T02:26:09;100412.94;;;23.07;49.03
35694;BME280;21812;55.536;37.664;2022-08-19T02:28:35;100409.56;;;22.99;48.72
35694;BME280;21812;55.536;37.664;2022-08-19T02:31:02;100408.84;;;23.04;49.35
35694;BME280;21812;55.536;37.664;2022-08-19T02:33:28;100406.81;;;22.94;49.19
35694;BME280;21812;55.536;37.664;2022-08-19T02:35:54;100401.81;;;22.86;49.38
35694;BME280;21812;55.536;37.664;2022-08-19T02:38:20;100411.16;;;22.95;49.65
35694;BME280;21812;55.536;37.664;2022-08-19T02:40:57;100406.34;;;23.02;49.69
35694;BME280;21812;55.536;37.664;2022-08-19T02:43:24;100412.38;;;23.05;49.29
35694;BME280;21812;55.536;37.664;2022-08-19T02:45:51;100407.88;;;22.93;49.04
35694;BME280;21812;55.536;37.664;2022-08-19T02:48:23;100369.41;;;22.62;49.10
35694;BME280;21812;55.536;37.664;2022-08-19T02:50:52;100394.59;;;22.75;49.49
35694;BME280;21812;55.536;37.664;2022-08-19T02:53:26;100419.09;;;22.97;49.07
35694;BME280;21812;55.536;37.664;2022-08-19T02:55:54;100421.56;;;22.98;49.34
35694;BME280;21812;55.536;37.664;2022-08-19T02:58:21;100418.91;;;23.03;49.53
35694;BME280;21812;55.536;37.664;2022-08-19T03:00:53;100423.84;;;23.07;49.38
35694;BME280;21812;55.536;37.664;2022-08-19T03:03:20;100407.69;;;23.00;49.47
35694;BME280;21812;55.536;37.664;2022-08-19T03:05:46;100422.47;;;23.04;49.26
35694;BME280;21812;55.536;37.664;2022-08-19T03:08:13;100413.38;;;22.98;49.34
35694;BME280;21812;55.536;37.664;2022-08-19T03:10:46;100426.00;;;23.05;49.39
35694;BME280;21812;55.536;37.664;2022-08-19T03:13:14;100425.50;;;23.08;49.25
35694;BME280;21812;55.536;37.664;2022-08-19T03:15:46;100413.44;;;23.03;49.11
35694;BME280;21812;55.536;37.664;2022-08-19T03:18:12;100416.13;;;22.98;49.07
35694;BME280;21812;55.536;37.664;2022-08-19T03:20:50;100419.09;;;22.97;49.02
35694;BME280;21812;55.536;37.664;2022-08-19T03:23:20;100428.13;;;23.02;49.29
35694;BME280;21812;55.536;37.664;2022-08-19T03:25:48;100428.88;;;22.98;48.90
35694;BME280;21812;55.536;37.664;2022-08-19T03:28:15;100425.88;;;22.94;49.25
35694;BME280;21812;55.536;37.664;2022-08-19T03:30:42;100429.47;;;23.00;49.23
35694;BME280;21812;55.536;37.664;2022-08-19T03:33:10;100402.03;;;22.84;48.73
35694;BME280;21812;55.536;37.664;2022-08-19T03:35:37;100422.06;;;22.95;49.19
35694;BME280;21812;55.536;37.664;2022-08-19T03:38:05;100408.91;;;22.87;49.73
35694;BME280;21812;55.536;37.664;2022-08-19T03:40:32;100416.13;;;22.98;50.82
35694;BME280;21812;55.536;37.664;2022-08-19T03:43:00;100419.28;;;23.12;50.73
35694;BME280;21812;55.536;37.664;2022-08-19T03:45:26;100419.84;;;23.14;50.79
35694;BME280;21812;55.536;37.664;2022-08-19T03:47:53;100425.91;;;23.21;50.66
35694;BME280;21812;55.536;37.664;2022-08-19T03:50:18;100429.28;;;23.07;49.38
35694;BME280;21812;55.536;37.664;2022-08-19T03:52:51;100428.25;;;23.13;50.01
35694;BME280;21812;55.536;37.664;2022-08-19T03:55:18;100428.38;;;23.23;50.52
35694;BME280;21812;55.536;37.664;2022-08-19T03:57:44;100428.88;;;23.20;50.31
35694;BME280;21812;55.536;37.664;2022-08-19T04:00:12;100420.72;;;23.20;49.83
35694;BME280;21812;55.536;37.664;2022-08-19T04:02:38;100415.28;;;23.20;50.28
35694;BME280;21812;55.536;37.664;2022-08-19T04:05:04;100419.91;;;22.97;49.56
35694;BME280;21812;55.536;37.664;2022-08-19T04:07:30;100412.28;;;22.99;50.23
35694;BME280;21812;55.536;37.664;2022-08-19T04:09:56;100418.13;;;22.86;50.78
35694;BME280;21812;55.536;37.664;2022-08-19T04:12:22;100414.28;;;22.82;50.18
35694;BME280;21812;55.536;37.664;2022-08-19T04:14:47;100420.69;;;22.93;51.00
35694;BME280;21812;55.536;37.664;2022-08-19T04:17:13;100432.75;;;23.02;50.76
35694;BME280;21812;55.536;37.664;2022-08-19T04:19:39;100432.75;;;23.02;51.28
35694;BME280;21812;55.536;37.664;2022-08-19T04:22:05;100432.09;;;23.12;51.13
35694;BME280;21812;55.536;37.664;2022-08-19T04:24:35;100408.00;;;23.03;50.33
35694;BME280;21812;55.536;37.664;2022-08-19T04:27:01;100426.78;;;23.27;50.21
35694;BME280;21812;55.536;37.664;2022-08-19T04:29:28;100444.31;;;23.36;49.78
35694;BME280;21812;55.536;37.664;2022-08-19T04:31:56;100446.00;;;23.42;49.74
35694;BME280;21812;55.536;37.664;2022-08-19T04:34:25;100429.56;;;23.32;49.14
35694;BME280;21812;55.536;37.664;2022-08-19T04:36:53;100441.59;;;23.36;49.50
35694;BME280;21812;55.536;37.664;2022-08-19T04:39:22;100449.31;;;23.45;49.43
35694;BME280;21812;55.536;37.664;2022-08-19T04:41:48;100445.31;;;23.30;49.52
35694;BME280;21812;55.536;37.664;2022-08-19T04:44:35;100442.59;;;23.30;49.46
35694;BME280;21812;55.536;37.664;2022-08-19T04:47:02;100447.72;;;23.21;49.32
35694;BME280;21812;55.536;37.664;2022-08-19T04:49:31;100447.78;;;23.27;49.66
35694;BME280;21812;55.536;37.664;2022-08-19T04:51:56;100440.75;;;23.36;49.35
35694;BME280;21812;55.536;37.664;2022-08-19T04:54:23;100426.94;;;23.15;51.02
35694;BME280;21812;55.536;37.664;2022-08-19T04:56:51;100443.19;;;23.32;51.86
35694;BME280;21812;55.536;37.664;2022-08-19T04:59:19;100440.63;;;23.48;53.70
35694;BME280;21812;55.536;37.664;2022-08-19T05:01:46;100441.94;;;23.72;57.22
35694;BME280;21812;55.536;37.664;2022-08-19T05:04:19;100427.66;;;23.92;58.01
35694;BME280;21812;55.536;37.664;2022-08-19T05:06:47;100417.91;;;24.02;59.06
35694;BME280;21812;55.536;37.664;2022-08-19T05:09:14;100446.03;;;24.07;58.70
35694;BME280;21812;55.536;37.664;2022-08-19T05:11:41;100438.34;;;24.04;52.35
35694;BME280;21812;55.536;37.664;2022-08-19T05:14:08;100440.63;;;24.17;55.43
35694;BME280;21812;55.536;37.664;2022-08-19T05:16:34;100441.72;;;24.16;54.13
35694;BME280;21812;55.536;37.664;2022-08-19T05:19:00;100434.25;;;24.02;49.75
35694;BME280;21812;55.536;37.664;2022-08-19T05:21:45;100442.09;;;23.93;50.04
35694;BME280;21812;55.536;37.664;2022-08-19T05:24:30;100444.06;;;23.97;51.46
35694;BME280;21812;55.536;37.664;2022-08-19T05:26:58;100435.88;;;23.97;50.86
35694;BME280;21812;55.536;37.664;2022-08-19T05:29:26;100430.06;;;23.89;50.64
35694;BME280;21812;55.536;37.664;2022-08-19T05:31:53;100435.31;;;24.00;51.23
35694;BME280;21812;55.536;37.664;2022-08-19T05:34:22;100443.81;;;24.04;51.35
35694;BME280;21812;55.536;37.664;2022-08-19T05:36:51;100438.91;;;24.01;50.81
35694;BME280;21812;55.536;37.664;2022-08-19T05:39:27;100410.41;;;23.87;51.55
35694;BME280;21812;55.536;37.664;2022-08-19T05:41:56;100424.41;;;23.95;51.20
35694;BME280;21812;55.536;37.664;2022-08-19T05:44:26;100424.72;;;23.99;51.16
35694;BME280;21812;55.536;37.664;2022-08-19T05:46:53;100431.84;;;24.05;51.03
35694;BME280;21812;55.536;37.664;2022-08-19T05:49:20;100438.16;;;24.11;50.62
35694;BME280;21812;55.536;37.664;2022-08-19T05:51:47;100431.56;;;24.07;50.88
35694;BME280;21812;55.536;37.664;2022-08-19T05:54:12;100430.81;;;24.16;50.67
35694;BME280;21812;55.536;37.664;2022-08-19T05:56:42;100440.06;;;24.15;50.60
35694;BME280;21812;55.536;37.664;2022-08-19T05:59:14;100439.25;;;24.15;51.00
35694;BME280;21812;55.536;37.664;2022-08-19T06:01:42;100423.09;;;24.08;50.63
35694;BME280;21812;55.536;37.664;2022-08-19T06:04:09;100431.28;;;24.03;49.42
35694;BME280;21812;55.536;37.664;2022-08-19T06:06:35;100440.84;;;24.06;50.46
35694;BME280;21812;55.536;37.664;2022-08-19T06:09:06;100442.19;;;24.03;50.11
35694;BME280;21812;55.536;37.664;2022-08-19T06:11:35;100423.28;;;23.91;49.88
35694;BME280;21812;55.536;37.664;2022-08-19T06:14:04;100434.50;;;24.00;49.65
35694;BME280;21812;55.536;37.664;2022-08-19T06:16:30;100454.88;;;24.25;49.35
35694;BME280;21812;55.536;37.664;2022-08-19T06:19:03;100457.69;;;24.40;48.87
35694;BME280;21812;55.536;37.664;2022-08-19T06:21:30;100462.28;;;23.92;49.64
35694;BME280;21812;55.536;37.664;2022-08-19T06:23:57;100465.44;;;23.51;50.83
35694;BME280;21812;55.536;37.664;2022-08-19T06:26:23;100464.78;;;23.39;51.18
35694;BME280;21812;55.536;37.664;2022-08-19T06:28:50;100468.88;;;23.14;51.07
35694;BME280;21812;55.536;37.664;2022-08-19T06:31:18;100456.88;;;22.93;52.00
35694;BME280;21812;55.536;37.664;2022-08-19T06:33:46;100465.63;;;22.95;52.10
35694;BME280;21812;55.536;37.664;2022-08-19T06:36:21;100444.53;;;22.86;52.73
35694;BME280;21812;55.536;37.664;2022-08-19T06:38:47;100464.50;;;22.91;52.86
35694;BME280;21812;55.536;37.664;2022-08-19T06:41:13;100463.69;;;22.91;52.90
35694;BME280;21812;55.536;37.664;2022-08-19T06:43:39;100458.84;;;22.98;52.94
35694;BME280;21812;55.536;37.664;2022-08-19T06:46:10;100457.69;;;22.94;52.54
35694;BME280;21812;55.536;37.664;2022-08-19T06:48:37;100456.31;;;22.91;52.86
35694;BME280;21812;55.536;37.664;2022-08-19T06:51:03;100453.66;;;22.96;53.74
35694;BME280;21812;55.536;37.664;2022-08-19T06:53:30;100431.50;;;22.88;53.37
35694;BME280;21812;55.536;37.664;2022-08-19T06:55:56;100462.28;;;23.10;53.69
35694;BME280;21812;55.536;37.664;2022-08-19T06:58:26;100453.56;;;23.08;54.55
35694;BME280;21812;55.536;37.664;2022-08-19T07:00:51;100452.47;;;23.09;54.09
35694;BME280;21812;55.536;37.664;2022-08-19T07:03:17;100458.19;;;23.08;52.85
35694;BME280;21812;55.536;37.664;2022-08-19T07:05:43;100458.19;;;23.08;53.23
35694;BME280;21812;55.536;37.664;2022-08-19T07:08:09;100459.88;;;23.14;53.15
35694;BME280;21812;55.536;37.664;2022-08-19T07:10:35;100463.25;;;23.21;52.69
35694;BME280;21812;55.536;37.664;2022-08-19T07:13:02;100440.28;;;23.17;53.07
35694;BME280;21812;55.536;37.664;2022-08-19T07:15:29;100459.53;;;23.32;52.79
35694;BME280;21812;55.536;37.664;2022-08-19T07:17:56;100454.66;;;23.34;52.67
35694;BME280;21812;55.536;37.664;2022-08-19T07:20:21;100450.03;;;23.35;52.94
35694;BME280;21812;55.536;37.664;2022-08-19T07:22:47;100451.41;;;23.37;52.57
35694;BME280;21812;55.536;37.664;2022-08-19T07:25:13;100457.97;;;23.41;52.20
35694;BME280;21812;55.536;37.664;2022-08-19T07:27:39;100454.50;;;23.46;53.34
35694;BME280;21812;55.536;37.664;2022-08-19T07:30:05;100458.59;;;23.49;53.09
35694;BME280;21812;55.536;37.664;2022-08-19T07:32:31;100461.94;;;23.56;54.83
35694;BME280;21812;55.536;37.664;2022-08-19T07:34:59;100456.00;;;23.64;53.71
35694;BME280;21812;55.536;37.664;2022-08-19T07:37:25;100463.13;;;23.65;52.37
35694;BME280;21812;55.536;37.664;2022-08-19T07:39:54;100463.44;;;23.74;53.15
35694;BME280;21812;55.536;37.664;2022-08-19T07:42:19;100456.69;;;23.76;52.05
35694;BME280;21812;55.536;37.664;2022-08-19T07:44:46;100452.84;;;23.77;51.67
35694;BME280;21812;55.536;37.664;2022-08-19T07:47:12;100452.94;;;23.83;51.72
35694;BME280;21812;55.536;37.664;2022-08-19T07:49:40;100461.69;;;23.85;51.17
35694;BME280;21812;55.536;37.664;2022-08-19T07:52:08;100442.19;;;23.76;51.32
35694;BME280;21812;55.536;37.664;2022-08-19T07:54:36;100436.47;;;23.72;51.00
35694;BME280;21812;55.536;37.664;2022-08-19T07:57:04;100452.94;;;23.83;51.40
35694;BME280;21812;55.536;37.664;2022-08-19T07:59:31;100457.34;;;23.89;50.50
35694;BME280;21812;55.536;37.664;2022-08-19T08:01:57;100456.28;;;23.90;52.27
35694;BME280;21812;55.536;37.664;2022-08-19T08:04:26;100454.06;;;23.87;51.14
35694;BME280;21812;55.536;37.664;2022-08-19T08:07:11;100450.75;;;23.85;50.47
35694;BME280;21812;55.536;37.664;2022-08-19T08:09:55;100452.13;;;23.87;50.63
35694;BME280;21812;55.536;37.664;2022-08-19T08:12:25;100434.88;;;23.76;50.69
35694;BME280;21812;55.536;37.664;2022-08-19T08:14:56;100460.63;;;23.91;49.79
35694;BME280;21812;55.536;37.664;2022-08-19T08:17:25;100435.19;;;23.80;49.58
35694;BME280;21812;55.536;37.664;2022-08-19T08:19:51;100456.91;;;24.02;49.76
35694;BME280;21812;55.536;37.664;2022-08-19T08:22:19;100437.19;;;23.95;50.29
35694;BME280;21812;55.536;37.664;2022-08-19T08:25:10;100438.28;;;23.94;48.97
35694;BME280;21812;55.536;37.664;2022-08-19T08:27:37;100463.25;;;24.13;49.22
35694;BME280;21812;55.536;37.664;2022-08-19T08:30:09;100464.63;;;24.15;48.32
35694;BME280;21812;55.536;37.664;2022-08-19T08:32:37;100467.41;;;24.20;49.34
35694;BME280;21812;55.536;37.664;2022-08-19T08:35:07;100466.91;;;24.29;48.90
35694;BME280;21812;55.536;37.664;2022-08-19T08:37:34;100454.41;;;24.38;49.09
35694;BME280;21812;55.536;37.664;2022-08-19T08:40:05;100463.69;;;24.42;47.26
35694;BME280;21812;55.536;37.664;2022-08-19T08:42:37;100462.38;;;24.45;47.08
35694;BME280;21812;55.536;37.664;2022-08-19T08:45:12;100453.88;;;24.41;47.76
35694;BME280;21812;55.536;37.664;2022-08-19T08:47:43;100456.03;;;24.34;46.73
35694;BME280;21812;55.536;37.664;2022-08-19T08:50:20;100447.75;;;24.24;46.95
35694;BME280;21812;55.536;37.664;2022-08-19T08:52:51;100466.97;;;24.39;46.97
35694;BME280;21812;55.536;37.664;2022-08-19T08:55:21;100464.56;;;24.48;47.11
35694;BME280;21812;55.536;37.664;2022-08-19T09:00:35;100440.94;;;24.64;46.94
35694;BME280;21812;55.536;37.664;2022-08-19T09:03:03;100458.75;;;24.82;46.14
35694;BME280;21812;55.536;37.664;2022-08-19T09:05:49;100444.00;;;24.77;46.19
35694;BME280;21812;55.536;37.664;2022-08-19T09:08:50;100475.47;;;25.01;46.66
35694;BME280;21812;55.536;37.664;2022-08-19T09:14:35;100466.78;;;25.14;46.96
35694;BME280;21812;55.536;37.664;2022-08-19T09:17:03;100462.41;;;25.13;44.59
35694;BME280;21812;55.536;37.664;2022-08-19T09:22:18;100455.59;;;25.21;44.61
35694;BME280;21812;55.536;37.664;2022-08-19T09:24:51;100464.06;;;25.19;44.52
35694;BME280;21812;55.536;37.664;2022-08-19T09:27:20;100465.69;;;25.20;44.89
35694;BME280;21812;55.536;37.664;2022-08-19T09:29:47;100471.47;;;25.24;45.64
35694;BME280;21812;55.536;37.664;2022-08-19T09:32:14;100469.88;;;25.33;45.24
35694;BME280;21812;55.536;37.664;2022-08-19T09:34:41;100478.91;;;25.39;44.12
35694;BME280;21812;55.536;37.664;2022-08-19T09:37:07;100473.44;;;25.44;43.54
35694;BME280;21812;55.536;37.664;2022-08-19T09:39:33;100477.00;;;25.54;43.33
35694;BME280;21812;55.536;37.664;2022-08-19T09:41:59;100468.00;;;25.59;42.19
35694;BME280;21812;55.536;37.664;2022-08-19T09:44:24;100464.72;;;25.67;42.51
35694;BME280;21812;55.536;37.664;2022-08-19T09:46:50;100476.22;;;25.74;42.14
35694;BME280;21812;55.536;37.664;2022-08-19T09:49:18;100454.34;;;25.74;42.67
35694;BME280;21812;55.536;37.664;2022-08-19T09:51:45;100482.00;;;25.93;41.43
35694;BME280;21812;55.536;37.664;2022-08-19T09:54:14;100484.72;;;25.93;40.79
35694;BME280;21812;55.536;37.664;2022-08-19T09:56:39;100489.63;;;26.02;40.45
35694;BME280;21812;55.536;37.664;2022-08-19T09:59:05;100493.19;;;26.02;39.99
35694;BME280;21812;55.536;37.664;2022-08-19T10:01:31;100474.84;;;26.08;38.98
35694;BME280;21812;55.536;37.664;2022-08-19T10:04:01;100484.97;;;26.18;39.27
35694;BME280;21812;55.536;37.664;2022-08-19T10:06:32;100482.78;;;26.30;39.42
35694;BME280;21812;55.536;37.664;2022-08-19T10:08:59;100492.03;;;26.49;38.63
35694;BME280;21812;55.536;37.664;2022-08-19T10:11:25;100491.22;;;26.59;37.94
35694;BME280;21812;55.536;37.664;2022-08-19T10:13:52;100491.69;;;26.77;37.65
35694;BME280;21812;55.536;37.664;2022-08-19T10:16:20;100466.19;;;26.86;35.04
35694;BME280;21812;55.536;37.664;2022-08-19T10:18:46;100495.66;;;27.15;35.09
35694;BME280;21812;55.536;37.664;2022-08-19T10:21:24;100472.59;;;27.21;34.95
35694;BME280;21812;55.536;37.664;2022-08-19T10:23:52;100505.38;;;27.47;34.31
35694;BME280;21812;55.536;37.664;2022-08-19T10:26:22;100507.78;;;27.59;34.36
35694;BME280;21812;55.536;37.664;2022-08-19T10:28:48;100500.00;;;27.71;33.12
35694;BME280;21812;55.536;37.664;2022-08-19T10:31:19;100509.56;;;27.74;32.42
35694;BME280;21812;55.536;37.664;2022-08-19T10:33:46;100505.16;;;27.78;32.85
35694;BME280;21812;55.536;37.664;2022-08-19T10:36:16;100477.19;;;27.76;33.76
35694;BME280;21812;55.536;37.664;2022-08-19T10:38:44;100494.78;;;28.09;32.71
35694;BME280;21812;55.536;37.664;2022-08-19T10:41:15;100475.34;;;28.00;32.91
35694;BME280;21812;55.536;37.664;2022-08-19T10:43:42;100487.31;;;28.15;33.52
35694;BME280;21812;55.536;37.664;2022-08-19T10:46:10;100491.69;;;28.16;33.41
35694;BME280;21812;55.536;37.664;2022-08-19T10:48:40;100489.41;;;28.23;32.30
35694;BME280;21812;55.536;37.664;2022-08-19T10:51:06;100486.97;;;28.21;32.31
35694;BME280;21812;55.536;37.664;2022-08-19T10:53:51;100492.97;;;28.23;32.57
35694;BME280;21812;55.536;37.664;2022-08-19T10:56:17;100494.31;;;28.31;31.95
35694;BME280;21812;55.536;37.664;2022-08-19T10:59:01;100489.78;;;28.40;32.21
35694;BME280;21812;55.536;37.664;2022-08-19T11:01:30;100509.72;;;28.56;31.15
35694;BME280;21812;55.536;37.664;2022-08-19T11:04:00;100508.41;;;28.49;31.88
35694;BME280;21812;55.536;37.664;2022-08-19T11:06:26;100490.31;;;28.42;31.54
35694;BME280;21812;55.536;37.664;2022-08-19T11:08:53;100498.22;;;28.49;31.96
35694;BME280;21812;55.536;37.664;2022-08-19T11:11:20;100498.22;;;28.49;31.51
35694;BME280;21812;55.536;37.664;2022-08-19T11:13:47;100489.69;;;28.51;33.60
35694;BME280;21812;55.536;37.664;2022-08-19T11:16:15;100474.28;;;28.55;32.88
35694;BME280;21812;55.536;37.664;2022-08-19T11:18:51;100477.06;;;28.50;33.60
35694;BME280;21812;55.536;37.664;2022-08-19T11:23:46;100456.63;;;28.61;33.15
35694;BME280;21812;55.536;37.664;2022-08-19T11:26:13;100487.31;;;28.68;33.75
35694;BME280;21812;55.536;37.664;2022-08-19T11:28:40;100484.22;;;28.75;34.31
35694;BME280;21812;55.536;37.664;2022-08-19T11:31:11;100464.59;;;28.87;32.70
35694;BME280;21812;55.536;37.664;2022-08-19T11:33:37;100479.09;;;29.11;32.80
35694;BME280;21812;55.536;37.664;2022-08-19T11:36:03;100477.28;;;29.01;32.26
35694;BME280;21812;55.536;37.664;2022-08-19T11:38:30;100473.69;;;28.82;32.52
35694;BME280;21812;55.536;37.664;2022-08-19T11:41:00;100483.16;;;28.46;32.44
35694;BME280;21812;55.536;37.664;2022-08-19T11:43:27;100477.50;;;28.08;32.84
35694;BME280;21812;55.536;37.664;2022-08-19T11:45:54;100488.31;;;27.95;34.08
35694;BME280;21812;55.536;37.664;2022-08-19T11:48:20;100491.47;;;28.12;33.63
35694;BME280;21812;55.536;37.664;2022-08-19T11:50:48;100474.84;;;28.27;33.29
35694;BME280;21812;55.536;37.664;2022-08-19T11:53:15;100469.09;;;28.24;33.02
35694;BME280;21812;55.536;37.664;2022-08-19T11:55:41;100493.81;;;28.53;33.12
35694;BME280;21812;55.536;37.664;2022-08-19T11:58:08;100494.34;;;28.55;32.24
35694;BME280;21812;55.536;37.664;2022-08-19T12:00:34;100485.50;;;28.82;32.65
35694;BME280;21812;55.536;37.664;2022-08-19T12:03:02;100475.66;;;29.00;32.34
35694;BME280;21812;55.536;37.664;2022-08-19T12:05:28;100479.50;;;28.99;31.88
35694;BME280;21812;55.536;37.664;2022-08-19T12:07:54;100474.97;;;28.90;32.63
35694;BME280;21812;55.536;37.664;2022-08-19T12:10:20;100467.16;;;28.78;32.07
35694;BME280;21812;55.536;37.664;2022-08-19T12:12:46;100473.00;;;28.71;33.20
35694;BME280;21812;55.536;37.664;2022-08-19T12:15:12;100477.88;;;28.50;33.22
35694;BME280;21812;55.536;37.664;2022-08-19T12:17:40;100485.47;;;28.34;33.12
35694;BME280;21812;55.536;37.664;2022-08-19T12:20:11;100477.53;;;28.03;34.18
35694;BME280;21812;55.536;37.664;2022-08-19T12:22:39;100484.84;;;28.13;34.17
35694;BME280;21812;55.536;37.664;2022-08-19T12:25:09;100462.84;;;28.18;34.66
35694;BME280;21812;55.536;37.664;2022-08-19T12:27:36;100484.78;;;28.47;33.73
35694;BME280;21812;55.536;37.664;2022-08-19T12:30:03;100478.38;;;28.81;34.17
35694;BME280;21812;55.536;37.664;2022-08-19T12:32:29;100479.28;;;28.96;33.27
35694;BME280;21812;55.536;37.664;2022-08-19T12:34:57;100480.59;;;28.79;33.54
35694;BME280;21812;55.536;37.664;2022-08-19T12:37:23;100486.28;;;28.64;33.78
35694;BME280;21812;55.536;37.664;2022-08-19T12:39:48;100485.38;;;28.44;34.24
35694;BME280;21812;55.536;37.664;2022-08-19T12:42:14;100490.78;;;28.55;34.33
35694;BME280;21812;55.536;37.664;2022-08-19T12:44:42;100463.03;;;28.27;33.72
35694;BME280;21812;55.536;37.664;2022-08-19T12:47:09;100479.59;;;28.17;33.51
35694;BME280;21812;55.536;37.664;2022-08-19T12:49:37;100478.34;;;27.64;34.71
35694;BME280;21812;55.536;37.664;2022-08-19T12:52:04;100487.91;;;27.33;35.30
35694;BME280;21812;55.536;37.664;2022-08-19T12:54:33;100489.13;;;27.06;35.45
35694;BME280;21812;55.536;37.664;2022-08-19T12:57:04;100494.97;;;26.89;36.02
35694;BME280;21812;55.536;37.664;2022-08-19T12:59:29;100484.03;;;26.79;36.43